Norbank — PGIS — position and weather

sailwx.info

Track history (hours):
 
Tides and Currents Weather Stations Pressure Air Temp Water Temp Dewpoint Dewpoint Depression Visibility Wind Speed Wind Dir Waves Ship Positions

Norbank

Operator: P & O Ferries

Last reported at 2019-Oct-18 22:40 UTC. Time now 2019-Oct-19 00:27 UTC.
Position N 53°33' W 003°44'.

Length 167 m; draft 5.5 m.

Type: Ship (hazmat cat A). MMSI: 246213000.

Date/timePositionNaut miles runAvg speedWind from/ knotsBaromVisibWave heightAir tempDewpointWater temp
2019-Oct-18 22:40N 53°33' W 003°44'317.8
2019-Oct-18 22:30N 53°33' W 003°40'917.7
2019-Oct-18 22:00N 53°33' W 003°25'816.2
2019-Oct-18 21:30N 53°32' W 003°11'714.2
2019-Oct-18 21:00N 53°27' W 003°02'1 1.1
2019-Oct-18 20:31N 53°27' W 003°01'0 0.8
2019-Oct-18 19:58N 53°27' W 003°01'0 0.0
2019-Oct-18 19:30N 53°27' W 003°01'0 0.0
2019-Oct-18 19:00N 53°27' W 003°01'0 0.0
2019-Oct-18 18:30N 53°27' W 003°01'0 0.0
2019-Oct-18 18:00N 53°27' W 003°01'0 0.0
2019-Oct-18 17:30N 53°27' W 003°01'0 0.0
2019-Oct-18 16:59N 53°27' W 003°01'0 0.0
2019-Oct-18 16:29N 53°27' W 003°01'0 0.3
2019-Oct-18 16:01N 53°27' W 003°01'0 0.7
2019-Oct-18 15:30N 53°27' W 003°01'5 9.8
2019-Oct-18 15:01N 53°31' W 003°06'816.8
2019-Oct-18 14:30N 53°31' W 003°21'918.7
2019-Oct-18 14:00N 53°31' W 003°36'918.9
2019-Oct-18 13:30N 53°32' W 003°52'1119.1
2019-Oct-18 12:57N 53°34' W 004°10'6719.3
2019-Oct-18 09:29N 53°21' W 005°60'713.6
2019-Oct-18 09:00N 53°21' W 006°11'1 1.7
2019-Oct-18 08:14N 53°21' W 006°13'0 0.0
2019-Oct-18 07:38N 53°21' W 006°13'0 0.0
2019-Oct-18 07:29N 53°21' W 006°13'0 0.0
2019-Oct-18 06:56N 53°21' W 006°13'0 0.0
2019-Oct-18 06:16N 53°21' W 006°13'0 0.0
2019-Oct-18 05:37N 53°21' W 006°13'0 0.0
2019-Oct-18 05:28N 53°21' W 006°13'0 0.0
2019-Oct-18 04:58N 53°21' W 006°13'0 0.0
2019-Oct-18 04:30N 53°21' W 006°13'2 3.2
2019-Oct-18 04:00N 53°21' W 006°10'815.4
2019-Oct-18 03:30N 53°22' W 005°58'7618.4
2019-Oct-17 23:23N 53°33' W 003°52'717.8
2019-Oct-17 23:01N 53°33' W 003°41'917.8
2019-Oct-17 22:31N 53°33' W 003°26'917.2
2019-Oct-17 22:01N 53°32' W 003°11'713.6
2019-Oct-17 21:30N 53°27' W 003°02'1 1.8
2019-Oct-17 21:00N 53°27' W 003°01'0 0.8
2019-Oct-17 20:28N 53°27' W 003°01'0 0.0
2019-Oct-17 20:00N 53°27' W 003°01'0 0.0
2019-Oct-17 19:30N 53°27' W 003°01'0 0.0
2019-Oct-17 19:00N 53°27' W 003°01'0 0.0
2019-Oct-17 18:30N 53°27' W 003°01'0 0.0
2019-Oct-17 17:59N 53°27' W 003°01'0 0.0
2019-Oct-17 17:29N 53°27' W 003°01'0 0.0
2019-Oct-17 16:59N 53°27' W 003°01'0 0.0
2019-Oct-17 16:29N 53°27' W 003°01'0 0.0
2019-Oct-17 15:59N 53°27' W 003°01'0 0.9
2019-Oct-17 15:31N 53°27' W 003°01'2 3.0
2019-Oct-17 15:00N 53°28' W 003°03'713.5
2019-Oct-17 14:31N 53°31' W 003°13'917.7
2019-Oct-17 14:01N 53°31' W 003°28'918.1
2019-Oct-17 13:31N 53°31' W 003°43'918.4
2019-Oct-17 13:01N 53°32' W 003°59'918.7
2019-Oct-17 12:30N 53°33' W 004°14'6418.8
2019-Oct-17 09:06N 53°21' W 005°60'220.0
2019-Oct-17 09:01N 53°20' W 006°03'611.5
2019-Oct-17 08:30N 53°21' W 006°12'0 0.8
2019-Oct-17 07:58N 53°21' W 006°13'0 0.0
2019-Oct-17 07:22N 53°21' W 006°13'0 0.0
2019-Oct-17 06:39N 53°21' W 006°13'0 0.0
2019-Oct-17 06:30N 53°21' W 006°13'0 0.0
2019-Oct-17 06:00N 53°21' W 006°13'0 0.0
2019-Oct-17 05:21N 53°21' W 006°13'0 0.0
2019-Oct-17 04:45N 53°21' W 006°13'0 0.0
2019-Oct-17 04:29N 53°21' W 006°13'0 0.8
2019-Oct-17 04:00N 53°21' W 006°12'510.3
2019-Oct-17 03:30N 53°20' W 006°04'1119.2
2019-Oct-17 02:57N 53°24' W 005°47'7018.0
2019-Oct-16 23:04N 53°34' W 003°51'117.9
2019-Oct-16 23:00N 53°34' W 003°48'917.9
2019-Oct-16 22:31N 53°33' W 003°34'917.7
2019-Oct-16 22:00N 53°32' W 003°19'815.7
2019-Oct-16 21:30N 53°31' W 003°06'5 9.5
2019-Oct-16 21:01N 53°27' W 003°01'0 0.5
2019-Oct-16 20:30N 53°27' W 003°01'0 0.8
2019-Oct-16 19:59N 53°27' W 003°01'0 0.0
2019-Oct-16 19:29N 53°27' W 003°01'0 0.0
2019-Oct-16 18:58N 53°27' W 003°01'0 0.0
2019-Oct-16 18:28N 53°27' W 003°01'0 0.0
2019-Oct-16 17:58N 53°27' W 003°01'0 0.0
2019-Oct-16 17:28N 53°27' W 003°01'0 0.0
2019-Oct-16 16:58N 53°27' W 003°01'0 0.0
2019-Oct-16 16:30N 53°27' W 003°01'0 0.0
2019-Oct-16 16:00N 53°27' W 003°01'0 0.8
2019-Oct-16 15:29N 53°27' W 003°01'0 0.6
2019-Oct-16 15:00N 53°27' W 003°02'713.9
2019-Oct-16 14:30N 53°32' W 003°10'917.4
2019-Oct-16 14:00N 53°31' W 003°25'917.5
2019-Oct-16 13:30N 53°31' W 003°40'917.6
2019-Oct-16 13:00N 53°32' W 003°54'7318.7
2019-Oct-16 09:05N 53°22' W 005°56'221.1
2019-Oct-16 08:59N 53°21' W 005°60'714.3
2019-Oct-16 08:30N 53°21' W 006°11'1 2.1
2019-Oct-16 07:58N 53°21' W 006°13'0 0.0
2019-Oct-16 07:28N 53°21' W 006°13'0 0.0
2019-Oct-16 06:55N 53°21' W 006°13'0 0.0
2019-Oct-16 06:26N 53°21' W 006°13'0 0.0
2019-Oct-16 05:58N 53°21' W 006°13'0 0.0
2019-Oct-16 05:30N 53°21' W 006°13'0 0.0
2019-Oct-16 04:57N 53°21' W 006°13'0 0.0
2019-Oct-16 04:30N 53°21' W 006°13'1 1.7
2019-Oct-16 04:00N 53°21' W 006°12'510.3
2019-Oct-16 03:30N 53°20' W 006°03'918.1
2019-Oct-16 03:00N 53°23' W 005°49'7317.6
2019-Oct-15 22:51N 53°34' W 003°47'618.1
2019-Oct-15 22:30N 53°34' W 003°37'918.1
2019-Oct-15 22:01N 53°33' W 003°22'917.1
2019-Oct-15 21:31N 53°31' W 003°07'611.5
2019-Oct-15 21:00N 53°27' W 003°01'0 0.7
2019-Oct-15 20:30N 53°27' W 003°01'0 0.3
2019-Oct-15 19:59N 53°27' W 003°01'0 0.0
2019-Oct-15 19:28N 53°27' W 003°01'0 0.0
2019-Oct-15 18:58N 53°27' W 003°01'0 0.0
2019-Oct-15 18:28N 53°27' W 003°01'0 0.0
2019-Oct-15 17:58N 53°27' W 003°01'0 0.0
2019-Oct-15 17:28N 53°27' W 003°01'0 0.0
2019-Oct-15 17:00N 53°27' W 003°01'0 0.0
2019-Oct-15 16:30N 53°27' W 003°01'0 0.9
2019-Oct-15 16:00N 53°27' W 003°01'0 0.2
2019-Oct-15 15:30N 53°27' W 003°01'613.0
2019-Oct-15 15:01N 53°32' W 003°08'816.3
2019-Oct-15 14:30N 53°31' W 003°22'917.8
2019-Oct-15 14:00N 53°31' W 003°37'917.8
2019-Oct-15 13:30N 53°32' W 003°52'918.0
2019-Oct-15 13:00N 53°33' W 004°07'6818.9
2019-Oct-15 09:24N 53°21' W 005°60'614.8
2019-Oct-15 09:00N 53°21' W 006°09'2 4.3
2019-Oct-15 08:30N 53°21' W 006°13'0 0.0
2019-Oct-15 07:42N 53°21' W 006°13'0 0.0
2019-Oct-15 07:27N 53°21' W 006°13'0 0.0
2019-Oct-15 06:54N 53°21' W 006°13'0 0.0
2019-Oct-15 06:21N 53°21' W 006°13'0 0.0
2019-Oct-15 05:45N 53°21' W 006°13'0 0.0
2019-Oct-15 05:29N 53°21' W 006°13'0 0.0
2019-Oct-15 04:59N 53°21' W 006°13'0 0.0
2019-Oct-15 04:30N 53°21' W 006°13'1 1.3
2019-Oct-15 04:00N 53°21' W 006°12'5 9.0
2019-Oct-15 03:30N 53°20' W 006°04'815.7
2019-Oct-15 03:00N 53°23' W 005°52'7717.2
2019-Oct-14 22:32N 53°33' W 003°44'118.3
2019-Oct-14 22:30N 53°33' W 003°43'918.4
2019-Oct-14 22:00N 53°33' W 003°28'917.9
2019-Oct-14 21:30N 53°31' W 003°13'714.8
2019-Oct-14 21:01N 53°28' W 003°02'1 2.0
2019-Oct-14 20:31N 53°27' W 003°01'0 0.9
2019-Oct-14 20:01N 53°27' W 003°01'0 0.0
2019-Oct-14 19:29N 53°27' W 003°01'0 0.0
2019-Oct-14 18:59N 53°27' W 003°01'0 0.0
2019-Oct-14 18:28N 53°27' W 003°01'0 0.0
2019-Oct-14 17:58N 53°27' W 003°01'0 0.0
2019-Oct-14 17:28N 53°27' W 003°01'0 0.0
2019-Oct-14 16:58N 53°27' W 003°01'0 0.0
2019-Oct-14 16:28N 53°27' W 003°01'0 0.0
2019-Oct-14 16:00N 53°27' W 003°01'0 0.0
2019-Oct-14 15:30N 53°27' W 003°01'0 0.0
2019-Oct-14 15:00N 53°27' W 003°01'0 0.0
2019-Oct-14 14:30N 53°27' W 003°01'0 0.0
2019-Oct-14 14:00N 53°27' W 003°01'0 0.0
2019-Oct-14 13:28N 53°27' W 003°01'0 0.0
2019-Oct-14 13:00N 53°27' W 003°01'0 0.0
2019-Oct-14 12:30N 53°27' W 003°01'0 0.0
2019-Oct-14 11:57N 53°27' W 003°01'0 0.0
2019-Oct-14 11:30N 53°27' W 003°01'0 0.0
2019-Oct-14 11:00N 53°27' W 003°01'0 0.0
2019-Oct-14 10:29N 53°27' W 003°01'0 0.0
2019-Oct-14 09:59N 53°27' W 003°01'0 0.0
2019-Oct-14 09:29N 53°27' W 003°01'0 0.0
2019-Oct-14 08:59N 53°27' W 003°01'0 0.0
2019-Oct-14 08:28N 53°27' W 003°01'0 0.0
2019-Oct-14 07:58N 53°27' W 003°01'0 0.0
2019-Oct-14 07:28N 53°27' W 003°01'0 0.0
2019-Oct-14 06:58N 53°27' W 003°01'0 0.0
2019-Oct-14 06:28N 53°27' W 003°01'0 0.0
2019-Oct-14 06:00N 53°27' W 003°01'0 0.0
2019-Oct-14 05:30N 53°27' W 003°01'0 0.9
2019-Oct-14 05:01N 53°27' W 003°01'0 0.0
2019-Oct-14 04:30N 53°27' W 003°01'2 3.8
2019-Oct-14 04:01N 53°28' W 003°04'611.9
2019-Oct-14 03:30N 53°31' W 003°12'817.0
2019-Oct-14 03:00N 53°31' W 003°26'917.8
2019-Oct-14 02:31N 53°31' W 003°41'917.6
2019-Oct-14 02:01N 53°32' W 003°56'917.2
2019-Oct-14 01:31N 53°34' W 004°10'6416.1
2019-Oct-13 21:33N 53°22' W 005°56'217.3
2019-Oct-13 21:24N 53°21' W 005°60'614.6
2019-Oct-13 21:00N 53°21' W 006°09'2 4.4
2019-Oct-13 20:30N 53°21' W 006°13'0 0.0
2019-Oct-13 19:58N 53°21' W 006°13'0 0.0
2019-Oct-13 19:27N 53°21' W 006°13'0 0.0
2019-Oct-13 18:42N 53°21' W 006°13'0 0.0
2019-Oct-13 18:30N 53°21' W 006°13'0 0.0
2019-Oct-13 17:57N 53°21' W 006°13'0 0.0
2019-Oct-13 17:17N 53°21' W 006°13'0 0.0
2019-Oct-13 16:38N 53°21' W 006°13'0 0.0
2019-Oct-13 16:30N 53°21' W 006°13'2 3.9
2019-Oct-13 16:00N 53°21' W 006°10'815.4
2019-Oct-13 15:30N 53°22' W 005°57'917.1
2019-Oct-13 15:00N 53°24' W 005°43'7218.9
2019-Oct-13 11:12N 53°33' W 003°43'419.3
2019-Oct-13 11:00N 53°33' W 003°37'1019.2
2019-Oct-13 10:31N 53°32' W 003°21'816.8
2019-Oct-13 10:00N 53°31' W 003°07'611.0
2019-Oct-13 09:30N 53°27' W 003°01'0 0.9
2019-Oct-13 09:00N 53°27' W 003°01'0 0.0
2019-Oct-13 08:29N 53°27' W 003°01'0 0.0
2019-Oct-13 07:59N 53°27' W 003°01'0 0.0
2019-Oct-13 07:28N 53°27' W 003°01'0 0.0
2019-Oct-13 06:58N 53°27' W 003°01'0 0.0
2019-Oct-13 06:28N 53°27' W 003°01'0 0.0
2019-Oct-13 05:58N 53°27' W 003°01'0 0.0
2019-Oct-13 05:28N 53°27' W 003°01'0 0.0
2019-Oct-13 05:00N 53°27' W 003°01'0 0.9
2019-Oct-13 04:30N 53°27' W 003°01'0 0.0
2019-Oct-13 04:00N 53°27' W 003°01'3 6.8
2019-Oct-13 03:31N 53°29' W 003°05'611.9
2019-Oct-13 03:00N 53°31' W 003°15'918.1
2019-Oct-13 02:31N 53°31' W 003°30'1019.5
2019-Oct-13 02:01N 53°30' W 003°46'1019.2
2019-Oct-13 01:31N 53°31' W 004°02'918.7
2019-Oct-13 01:01N 53°33' W 004°18'6219.5
2019-Oct-12 21:50N 53°21' W 006°00'515.3
2019-Oct-12 21:30N 53°21' W 006°09'3 5.4
2019-Oct-12 21:00N 53°21' W 006°13'0 0.0
2019-Oct-12 20:11N 53°21' W 006°13'0 0.0
2019-Oct-12 19:56N 53°21' W 006°13'0 0.0
2019-Oct-12 19:25N 53°21' W 006°13'0 0.0
2019-Oct-12 18:43N 53°21' W 006°13'0 0.0
2019-Oct-12 18:28N 53°21' W 006°13'0 0.0
2019-Oct-12 17:58N 53°21' W 006°13'0 0.0
2019-Oct-12 17:30N 53°21' W 006°13'1 3.0
2019-Oct-12 17:00N 53°21' W 006°11'914.2
2019-Oct-12 16:24N 53°22' W 005°56'7821.6
2019-Oct-12 12:47N 53°33' W 003°47'621.6
2019-Oct-12 12:30N 53°33' W 003°37'1121.3
2019-Oct-12 12:00N 53°32' W 003°19'611.7
2019-Oct-12 11:30N 53°32' W 003°09'713.2
2019-Oct-12 11:01N 53°27' W 003°02'0 0.6
2019-Oct-12 10:31N 53°27' W 003°01'0 0.8
2019-Oct-12 10:01N 53°27' W 003°01'0 0.0
2019-Oct-12 09:30N 53°27' W 003°01'0 0.0
2019-Oct-12 09:00N 53°27' W 003°01'0 0.0
2019-Oct-12 08:30N 53°27' W 003°01'0 0.0
2019-Oct-12 07:59N 53°27' W 003°01'0 0.0
2019-Oct-12 07:29N 53°27' W 003°01'0 0.0
2019-Oct-12 06:59N 53°27' W 003°01'0 0.0
2019-Oct-12 06:29N 53°27' W 003°01'0 0.0
2019-Oct-12 05:58N 53°27' W 003°01'0 0.0
2019-Oct-12 05:28N 53°27' W 003°01'0 0.9
2019-Oct-12 05:01N 53°27' W 003°01'0 0.2
2019-Oct-12 04:30N 53°27' W 003°01'510.0
2019-Oct-12 04:00N 53°31' W 003°07'612.5
2019-Oct-12 03:31N 53°31' W 003°17'917.2
2019-Oct-12 03:01N 53°31' W 003°31'918.4
2019-Oct-12 02:31N 53°31' W 003°47'918.1
2019-Oct-12 02:01N 53°32' W 004°02'917.5
2019-Oct-12 01:30N 53°34' W 004°17'6318.1
2019-Oct-11 22:03N 53°21' W 005°59'119.1
2019-Oct-11 22:01N 53°21' W 006°00'713.0
2019-Oct-11 21:30N 53°21' W 006°11'1 0.8
2019-Oct-11 20:15N 53°21' W 006°13'0 0.0
2019-Oct-11 19:57N 53°21' W 006°13'0 0.0
2019-Oct-11 19:30N 53°21' W 006°13'0 0.0
2019-Oct-11 18:45N 53°21' W 006°13'0 0.0
2019-Oct-11 18:30N 53°21' W 006°13'0 0.0
2019-Oct-11 17:59N 53°21' W 006°13'0 0.0
2019-Oct-11 17:02N 53°21' W 006°13'0 0.0
2019-Oct-11 16:59N 53°21' W 006°13'0 0.0
2019-Oct-11 16:30N 53°21' W 006°13'2 3.9
2019-Oct-11 16:00N 53°21' W 006°10'715.1
2019-Oct-11 15:30N 53°22' W 005°58'7818.5
2019-Oct-11 11:17N 53°33' W 003°48'519.3
2019-Oct-11 11:00N 53°33' W 003°39'1019.1
2019-Oct-11 10:30N 53°33' W 003°23'918.3
2019-Oct-11 10:00N 53°32' W 003°08'612.0
2019-Oct-11 09:30N 53°27' W 003°01'0 0.7
2019-Oct-11 09:00N 53°27' W 003°01'0 0.2
2019-Oct-11 08:29N 53°27' W 003°01'0 0.0
2019-Oct-11 07:59N 53°27' W 003°01'0 0.0
2019-Oct-11 07:28N 53°27' W 003°01'0 0.0
2019-Oct-11 06:58N 53°27' W 003°01'0 0.0
2019-Oct-11 06:28N 53°27' W 003°01'0 0.0
2019-Oct-11 05:58N 53°27' W 003°01'0 0.0
2019-Oct-11 05:28N 53°27' W 003°01'0 0.0
2019-Oct-11 05:00N 53°27' W 003°01'0 0.3
2019-Oct-11 04:30N 53°27' W 003°01'0 0.8
2019-Oct-11 04:00N 53°27' W 003°01'2 5.0
2019-Oct-11 03:30N 53°29' W 003°04'611.8
2019-Oct-11 03:01N 53°31' W 003°13'918.6
2019-Oct-11 02:31N 53°31' W 003°29'1020.2
2019-Oct-11 02:00N 53°31' W 003°46'1019.6
2019-Oct-11 01:31N 53°31' W 004°02'1018.8
2019-Oct-11 00:59N 53°35' W 004°18'6219.3
2019-Oct-10 21:47N 53°21' W 005°60'415.7
2019-Oct-10 21:30N 53°20' W 006°07'4 7.5
2019-Oct-10 21:00N 53°21' W 006°13'0 0.0
2019-Oct-10 20:27N 53°21' W 006°13'0 0.0
2019-Oct-10 19:47N 53°21' W 006°13'0 0.0
2019-Oct-10 19:05N 53°21' W 006°13'0 0.0
2019-Oct-10 18:59N 53°21' W 006°13'0 0.0
2019-Oct-10 18:20N 53°21' W 006°13'0 0.0
2019-Oct-10 17:41N 53°21' W 006°13'0 0.0
2019-Oct-10 17:28N 53°21' W 006°13'1 1.8
2019-Oct-10 17:00N 53°21' W 006°12'612.3
2019-Oct-10 16:30N 53°21' W 006°01'1017.5
2019-Oct-10 15:58N 53°24' W 005°46'7118.3
2019-Oct-10 12:04N 53°34' W 003°48'119.4
2019-Oct-10 12:00N 53°33' W 003°45'1019.2
2019-Oct-10 11:30N 53°33' W 003°29'918.9
2019-Oct-10 11:00N 53°31' W 003°14'612.6
2019-Oct-10 10:31N 53°29' W 003°04'2 4.7
2019-Oct-10 10:01N 53°27' W 003°01'0 0.9
2019-Oct-10 09:30N 53°27' W 003°01'0 0.0
2019-Oct-10 08:58N 53°27' W 003°01'0 0.0
2019-Oct-10 08:28N 53°27' W 003°01'0 0.0
2019-Oct-10 07:58N 53°27' W 003°01'0 0.0
2019-Oct-10 07:27N 53°27' W 003°01'0 0.0
2019-Oct-10 06:57N 53°27' W 003°01'0 0.0
2019-Oct-10 06:27N 53°27' W 003°01'0 0.0
2019-Oct-10 06:00N 53°27' W 003°01'0 0.0
2019-Oct-10 05:30N 53°27' W 003°01'0 0.0
2019-Oct-10 05:00N 53°27' W 003°01'0 0.9
2019-Oct-10 04:30N 53°27' W 003°01'0 0.9
2019-Oct-10 04:01N 53°27' W 003°02'714.4
2019-Oct-10 03:31N 53°32' W 003°11'917.8
2019-Oct-10 03:01N 53°31' W 003°26'918.6
2019-Oct-10 02:30N 53°31' W 003°42'918.3
2019-Oct-10 02:00N 53°33' W 003°57'917.9
2019-Oct-10 01:30N 53°34' W 004°12'6518.1
2019-Oct-09 21:54N 53°21' W 005°59'614.2
2019-Oct-09 21:30N 53°21' W 006°09'3 5.3
2019-Oct-09 21:00N 53°21' W 006°13'0 0.0
2019-Oct-09 20:22N 53°21' W 006°13'0 0.0
2019-Oct-09 19:43N 53°21' W 006°13'0 0.0
2019-Oct-09 19:28N 53°21' W 006°13'0 0.0
2019-Oct-09 18:58N 53°21' W 006°13'0 0.0
2019-Oct-09 18:09N 53°21' W 006°13'0 0.0
2019-Oct-09 18:00N 53°21' W 006°13'0 0.0
2019-Oct-09 17:27N 53°21' W 006°13'0 0.0
2019-Oct-09 16:45N 53°21' W 006°13'0 0.5
2019-Oct-09 16:30N 53°21' W 006°13'2 3.6
2019-Oct-09 16:00N 53°21' W 006°10'714.2
2019-Oct-09 15:30N 53°22' W 005°58'7818.3
2019-Oct-09 11:14N 53°34' W 003°49'418.9
2019-Oct-09 11:00N 53°33' W 003°41'918.8
2019-Oct-09 10:30N 53°33' W 003°26'918.1
2019-Oct-09 10:01N 53°32' W 003°11'715.0
2019-Oct-09 09:30N 53°27' W 003°01'0 0.5
2019-Oct-09 09:01N 53°27' W 003°01'0 0.7
2019-Oct-09 08:28N 53°27' W 003°01'0 0.0
2019-Oct-09 07:58N 53°27' W 003°01'0 0.0
2019-Oct-09 07:28N 53°27' W 003°01'0 0.0
2019-Oct-09 06:58N 53°27' W 003°01'0 0.0
2019-Oct-09 06:30N 53°27' W 003°01'0 0.0
2019-Oct-09 06:00N 53°27' W 003°01'0 0.0
2019-Oct-09 05:30N 53°27' W 003°01'0 0.0
2019-Oct-09 05:00N 53°27' W 003°01'0 0.0
2019-Oct-09 04:30N 53°27' W 003°01'0 0.9
2019-Oct-09 04:01N 53°27' W 003°01'0 0.7
2019-Oct-09 03:30N 53°27' W 003°02'714.0
2019-Oct-09 03:01N 53°32' W 003°11'816.8
2019-Oct-09 02:30N 53°31' W 003°25'816.9
2019-Oct-09 02:00N 53°31' W 003°39'917.4
2019-Oct-09 01:30N 53°32' W 003°53'918.1
2019-Oct-09 01:00N 53°34' W 004°09'  
Track history (hours):
 
Tides and Currents Weather Stations Pressure Air Temp Water Temp Dewpoint Dewpoint Depression Visibility Wind Speed Wind Dir Waves Ship Positions

Norbank

Operator: P & O Ferries

Last reported at 2019-Oct-18 22:40 UTC. Time now 2019-Oct-19 00:27 UTC.
Position N 53°33' W 003°44'.

Length 167 m; draft 5.5 m.

Type: Ship (hazmat cat A). MMSI: 246213000.

Date/timePositionNaut miles runAvg speedWind from/ knotsBaromVisibWave heightAir tempDewpointWater temp
2019-Oct-18 22:40N 53°33' W 003°44'317.8
2019-Oct-18 22:30N 53°33' W 003°40'917.7
2019-Oct-18 22:00N 53°33' W 003°25'816.2
2019-Oct-18 21:30N 53°32' W 003°11'714.2
2019-Oct-18 21:00N 53°27' W 003°02'1 1.1
2019-Oct-18 20:31N 53°27' W 003°01'0 0.8
2019-Oct-18 19:58N 53°27' W 003°01'0 0.0
2019-Oct-18 19:30N 53°27' W 003°01'0 0.0
2019-Oct-18 19:00N 53°27' W 003°01'0 0.0
2019-Oct-18 18:30N 53°27' W 003°01'0 0.0
2019-Oct-18 18:00N 53°27' W 003°01'0 0.0
2019-Oct-18 17:30N 53°27' W 003°01'0 0.0
2019-Oct-18 16:59N 53°27' W 003°01'0 0.0
2019-Oct-18 16:29N 53°27' W 003°01'0 0.3
2019-Oct-18 16:01N 53°27' W 003°01'0 0.7
2019-Oct-18 15:30N 53°27' W 003°01'5 9.8
2019-Oct-18 15:01N 53°31' W 003°06'816.8
2019-Oct-18 14:30N 53°31' W 003°21'918.7
2019-Oct-18 14:00N 53°31' W 003°36'918.9
2019-Oct-18 13:30N 53°32' W 003°52'1119.1
2019-Oct-18 12:57N 53°34' W 004°10'6719.3
2019-Oct-18 09:29N 53°21' W 005°60'713.6
2019-Oct-18 09:00N 53°21' W 006°11'1 1.7
2019-Oct-18 08:14N 53°21' W 006°13'0 0.0
2019-Oct-18 07:38N 53°21' W 006°13'0 0.0
2019-Oct-18 07:29N 53°21' W 006°13'0 0.0
2019-Oct-18 06:56N 53°21' W 006°13'0 0.0
2019-Oct-18 06:16N 53°21' W 006°13'0 0.0
2019-Oct-18 05:37N 53°21' W 006°13'0 0.0
2019-Oct-18 05:28N 53°21' W 006°13'0 0.0
2019-Oct-18 04:58N 53°21' W 006°13'0 0.0
2019-Oct-18 04:30N 53°21' W 006°13'2 3.2
2019-Oct-18 04:00N 53°21' W 006°10'815.4
2019-Oct-18 03:30N 53°22' W 005°58'7618.4
2019-Oct-17 23:23N 53°33' W 003°52'717.8
2019-Oct-17 23:01N 53°33' W 003°41'917.8
2019-Oct-17 22:31N 53°33' W 003°26'917.2
2019-Oct-17 22:01N 53°32' W 003°11'713.6
2019-Oct-17 21:30N 53°27' W 003°02'1 1.8
2019-Oct-17 21:00N 53°27' W 003°01'0 0.8
2019-Oct-17 20:28N 53°27' W 003°01'0 0.0
2019-Oct-17 20:00N 53°27' W 003°01'0 0.0
2019-Oct-17 19:30N 53°27' W 003°01'0 0.0
2019-Oct-17 19:00N 53°27' W 003°01'0 0.0
2019-Oct-17 18:30N 53°27' W 003°01'0 0.0
2019-Oct-17 17:59N 53°27' W 003°01'0 0.0
2019-Oct-17 17:29N 53°27' W 003°01'0 0.0
2019-Oct-17 16:59N 53°27' W 003°01'0 0.0
2019-Oct-17 16:29N 53°27' W 003°01'0 0.0
2019-Oct-17 15:59N 53°27' W 003°01'0 0.9
2019-Oct-17 15:31N 53°27' W 003°01'2 3.0
2019-Oct-17 15:00N 53°28' W 003°03'713.5
2019-Oct-17 14:31N 53°31' W 003°13'917.7
2019-Oct-17 14:01N 53°31' W 003°28'918.1
2019-Oct-17 13:31N 53°31' W 003°43'918.4
2019-Oct-17 13:01N 53°32' W 003°59'918.7
2019-Oct-17 12:30N 53°33' W 004°14'6418.8
2019-Oct-17 09:06N 53°21' W 005°60'220.0
2019-Oct-17 09:01N 53°20' W 006°03'611.5
2019-Oct-17 08:30N 53°21' W 006°12'0 0.8
2019-Oct-17 07:58N 53°21' W 006°13'0 0.0
2019-Oct-17 07:22N 53°21' W 006°13'0 0.0
2019-Oct-17 06:39N 53°21' W 006°13'0 0.0
2019-Oct-17 06:30N 53°21' W 006°13'0 0.0
2019-Oct-17 06:00N 53°21' W 006°13'0 0.0
2019-Oct-17 05:21N 53°21' W 006°13'0 0.0
2019-Oct-17 04:45N 53°21' W 006°13'0 0.0
2019-Oct-17 04:29N 53°21' W 006°13'0 0.8
2019-Oct-17 04:00N 53°21' W 006°12'510.3
2019-Oct-17 03:30N 53°20' W 006°04'1119.2
2019-Oct-17 02:57N 53°24' W 005°47'7018.0
2019-Oct-16 23:04N 53°34' W 003°51'117.9
2019-Oct-16 23:00N 53°34' W 003°48'917.9
2019-Oct-16 22:31N 53°33' W 003°34'917.7
2019-Oct-16 22:00N 53°32' W 003°19'815.7
2019-Oct-16 21:30N 53°31' W 003°06'5 9.5
2019-Oct-16 21:01N 53°27' W 003°01'0 0.5
2019-Oct-16 20:30N 53°27' W 003°01'0 0.8
2019-Oct-16 19:59N 53°27' W 003°01'0 0.0
2019-Oct-16 19:29N 53°27' W 003°01'0 0.0
2019-Oct-16 18:58N 53°27' W 003°01'0 0.0
2019-Oct-16 18:28N 53°27' W 003°01'0 0.0
2019-Oct-16 17:58N 53°27' W 003°01'0 0.0
2019-Oct-16 17:28N 53°27' W 003°01'0 0.0
2019-Oct-16 16:58N 53°27' W 003°01'0 0.0
2019-Oct-16 16:30N 53°27' W 003°01'0 0.0
2019-Oct-16 16:00N 53°27' W 003°01'0 0.8
2019-Oct-16 15:29N 53°27' W 003°01'0 0.6
2019-Oct-16 15:00N 53°27' W 003°02'713.9
2019-Oct-16 14:30N 53°32' W 003°10'917.4
2019-Oct-16 14:00N 53°31' W 003°25'917.5
2019-Oct-16 13:30N 53°31' W 003°40'917.6
2019-Oct-16 13:00N 53°32' W 003°54'7318.7
2019-Oct-16 09:05N 53°22' W 005°56'221.1
2019-Oct-16 08:59N 53°21' W 005°60'714.3
2019-Oct-16 08:30N 53°21' W 006°11'1 2.1
2019-Oct-16 07:58N 53°21' W 006°13'0 0.0
2019-Oct-16 07:28N 53°21' W 006°13'0 0.0
2019-Oct-16 06:55N 53°21' W 006°13'0 0.0
2019-Oct-16 06:26N 53°21' W 006°13'0 0.0
2019-Oct-16 05:58N 53°21' W 006°13'0 0.0
2019-Oct-16 05:30N 53°21' W 006°13'0 0.0
2019-Oct-16 04:57N 53°21' W 006°13'0 0.0
2019-Oct-16 04:30N 53°21' W 006°13'1 1.7
2019-Oct-16 04:00N 53°21' W 006°12'510.3
2019-Oct-16 03:30N 53°20' W 006°03'918.1
2019-Oct-16 03:00N 53°23' W 005°49'7317.6
2019-Oct-15 22:51N 53°34' W 003°47'618.1
2019-Oct-15 22:30N 53°34' W 003°37'918.1
2019-Oct-15 22:01N 53°33' W 003°22'917.1
2019-Oct-15 21:31N 53°31' W 003°07'611.5
2019-Oct-15 21:00N 53°27' W 003°01'0 0.7
2019-Oct-15 20:30N 53°27' W 003°01'0 0.3
2019-Oct-15 19:59N 53°27' W 003°01'0 0.0
2019-Oct-15 19:28N 53°27' W 003°01'0 0.0
2019-Oct-15 18:58N 53°27' W 003°01'0 0.0
2019-Oct-15 18:28N 53°27' W 003°01'0 0.0
2019-Oct-15 17:58N 53°27' W 003°01'0 0.0
2019-Oct-15 17:28N 53°27' W 003°01'0 0.0
2019-Oct-15 17:00N 53°27' W 003°01'0 0.0
2019-Oct-15 16:30N 53°27' W 003°01'0 0.9
2019-Oct-15 16:00N 53°27' W 003°01'0 0.2
2019-Oct-15 15:30N 53°27' W 003°01'613.0
2019-Oct-15 15:01N 53°32' W 003°08'816.3
2019-Oct-15 14:30N 53°31' W 003°22'917.8
2019-Oct-15 14:00N 53°31' W 003°37'917.8
2019-Oct-15 13:30N 53°32' W 003°52'918.0
2019-Oct-15 13:00N 53°33' W 004°07'6818.9
2019-Oct-15 09:24N 53°21' W 005°60'614.8
2019-Oct-15 09:00N 53°21' W 006°09'2 4.3
2019-Oct-15 08:30N 53°21' W 006°13'0 0.0
2019-Oct-15 07:42N 53°21' W 006°13'0 0.0
2019-Oct-15 07:27N 53°21' W 006°13'0 0.0
2019-Oct-15 06:54N 53°21' W 006°13'0 0.0
2019-Oct-15 06:21N 53°21' W 006°13'0 0.0
2019-Oct-15 05:45N 53°21' W 006°13'0 0.0
2019-Oct-15 05:29N 53°21' W 006°13'0 0.0
2019-Oct-15 04:59N 53°21' W 006°13'0 0.0
2019-Oct-15 04:30N 53°21' W 006°13'1 1.3
2019-Oct-15 04:00N 53°21' W 006°12'5 9.0
2019-Oct-15 03:30N 53°20' W 006°04'815.7
2019-Oct-15 03:00N 53°23' W 005°52'7717.2
2019-Oct-14 22:32N 53°33' W 003°44'118.3
2019-Oct-14 22:30N 53°33' W 003°43'918.4
2019-Oct-14 22:00N 53°33' W 003°28'917.9
2019-Oct-14 21:30N 53°31' W 003°13'714.8
2019-Oct-14 21:01N 53°28' W 003°02'1 2.0
2019-Oct-14 20:31N 53°27' W 003°01'0 0.9
2019-Oct-14 20:01N 53°27' W 003°01'0 0.0
2019-Oct-14 19:29N 53°27' W 003°01'0 0.0
2019-Oct-14 18:59N 53°27' W 003°01'0 0.0
2019-Oct-14 18:28N 53°27' W 003°01'0 0.0
2019-Oct-14 17:58N 53°27' W 003°01'0 0.0
2019-Oct-14 17:28N 53°27' W 003°01'0 0.0
2019-Oct-14 16:58N 53°27' W 003°01'0 0.0
2019-Oct-14 16:28N 53°27' W 003°01'0 0.0
2019-Oct-14 16:00N 53°27' W 003°01'0 0.0
2019-Oct-14 15:30N 53°27' W 003°01'0 0.0
2019-Oct-14 15:00N 53°27' W 003°01'0 0.0
2019-Oct-14 14:30N 53°27' W 003°01'0 0.0
2019-Oct-14 14:00N 53°27' W 003°01'0 0.0
2019-Oct-14 13:28N 53°27' W 003°01'0 0.0
2019-Oct-14 13:00N 53°27' W 003°01'0 0.0
2019-Oct-14 12:30N 53°27' W 003°01'0 0.0
2019-Oct-14 11:57N 53°27' W 003°01'0 0.0
2019-Oct-14 11:30N 53°27' W 003°01'0 0.0
2019-Oct-14 11:00N 53°27' W 003°01'0 0.0
2019-Oct-14 10:29N 53°27' W 003°01'0 0.0
2019-Oct-14 09:59N 53°27' W 003°01'0 0.0
2019-Oct-14 09:29N 53°27' W 003°01'0 0.0
2019-Oct-14 08:59N 53°27' W 003°01'0 0.0
2019-Oct-14 08:28N 53°27' W 003°01'0 0.0
2019-Oct-14 07:58N 53°27' W 003°01'0 0.0
2019-Oct-14 07:28N 53°27' W 003°01'0 0.0
2019-Oct-14 06:58N 53°27' W 003°01'0 0.0
2019-Oct-14 06:28N 53°27' W 003°01'0 0.0
2019-Oct-14 06:00N 53°27' W 003°01'0 0.0
2019-Oct-14 05:30N 53°27' W 003°01'0 0.9
2019-Oct-14 05:01N 53°27' W 003°01'0 0.0
2019-Oct-14 04:30N 53°27' W 003°01'2 3.8
2019-Oct-14 04:01N 53°28' W 003°04'611.9
2019-Oct-14 03:30N 53°31' W 003°12'817.0
2019-Oct-14 03:00N 53°31' W 003°26'917.8
2019-Oct-14 02:31N 53°31' W 003°41'917.6
2019-Oct-14 02:01N 53°32' W 003°56'917.2
2019-Oct-14 01:31N 53°34' W 004°10'6416.1
2019-Oct-13 21:33N 53°22' W 005°56'217.3
2019-Oct-13 21:24N 53°21' W 005°60'614.6
2019-Oct-13 21:00N 53°21' W 006°09'2 4.4
2019-Oct-13 20:30N 53°21' W 006°13'0 0.0
2019-Oct-13 19:58N 53°21' W 006°13'0 0.0
2019-Oct-13 19:27N 53°21' W 006°13'0 0.0
2019-Oct-13 18:42N 53°21' W 006°13'0 0.0
2019-Oct-13 18:30N 53°21' W 006°13'0 0.0
2019-Oct-13 17:57N 53°21' W 006°13'0 0.0
2019-Oct-13 17:17N 53°21' W 006°13'0 0.0
2019-Oct-13 16:38N 53°21' W 006°13'0 0.0
2019-Oct-13 16:30N 53°21' W 006°13'2 3.9
2019-Oct-13 16:00N 53°21' W 006°10'815.4
2019-Oct-13 15:30N 53°22' W 005°57'917.1
2019-Oct-13 15:00N 53°24' W 005°43'7218.9
2019-Oct-13 11:12N 53°33' W 003°43'419.3
2019-Oct-13 11:00N 53°33' W 003°37'1019.2
2019-Oct-13 10:31N 53°32' W 003°21'816.8
2019-Oct-13 10:00N 53°31' W 003°07'611.0
2019-Oct-13 09:30N 53°27' W 003°01'0 0.9
2019-Oct-13 09:00N 53°27' W 003°01'0 0.0
2019-Oct-13 08:29N 53°27' W 003°01'0 0.0
2019-Oct-13 07:59N 53°27' W 003°01'0 0.0
2019-Oct-13 07:28N 53°27' W 003°01'0 0.0
2019-Oct-13 06:58N 53°27' W 003°01'0 0.0
2019-Oct-13 06:28N 53°27' W 003°01'0 0.0
2019-Oct-13 05:58N 53°27' W 003°01'0 0.0
2019-Oct-13 05:28N 53°27' W 003°01'0 0.0
2019-Oct-13 05:00N 53°27' W 003°01'0 0.9
2019-Oct-13 04:30N 53°27' W 003°01'0 0.0
2019-Oct-13 04:00N 53°27' W 003°01'3 6.8
2019-Oct-13 03:31N 53°29' W 003°05'611.9
2019-Oct-13 03:00N 53°31' W 003°15'918.1
2019-Oct-13 02:31N 53°31' W 003°30'1019.5
2019-Oct-13 02:01N 53°30' W 003°46'1019.2
2019-Oct-13 01:31N 53°31' W 004°02'918.7
2019-Oct-13 01:01N 53°33' W 004°18'6219.5
2019-Oct-12 21:50N 53°21' W 006°00'515.3
2019-Oct-12 21:30N 53°21' W 006°09'3 5.4
2019-Oct-12 21:00N 53°21' W 006°13'0 0.0
2019-Oct-12 20:11N 53°21' W 006°13'0 0.0
2019-Oct-12 19:56N 53°21' W 006°13'0 0.0
2019-Oct-12 19:25N 53°21' W 006°13'0 0.0
2019-Oct-12 18:43N 53°21' W 006°13'0 0.0
2019-Oct-12 18:28N 53°21' W 006°13'0 0.0
2019-Oct-12 17:58N 53°21' W 006°13'0 0.0
2019-Oct-12 17:30N 53°21' W 006°13'1 3.0
2019-Oct-12 17:00N 53°21' W 006°11'914.2
2019-Oct-12 16:24N 53°22' W 005°56'7821.6
2019-Oct-12 12:47N 53°33' W 003°47'621.6
2019-Oct-12 12:30N 53°33' W 003°37'1121.3
2019-Oct-12 12:00N 53°32' W 003°19'611.7
2019-Oct-12 11:30N 53°32' W 003°09'713.2
2019-Oct-12 11:01N 53°27' W 003°02'0 0.6
2019-Oct-12 10:31N 53°27' W 003°01'0 0.8
2019-Oct-12 10:01N 53°27' W 003°01'0 0.0
2019-Oct-12 09:30N 53°27' W 003°01'0 0.0
2019-Oct-12 09:00N 53°27' W 003°01'0 0.0
2019-Oct-12 08:30N 53°27' W 003°01'0 0.0
2019-Oct-12 07:59N 53°27' W 003°01'0 0.0
2019-Oct-12 07:29N 53°27' W 003°01'0 0.0
2019-Oct-12 06:59N 53°27' W 003°01'0 0.0
2019-Oct-12 06:29N 53°27' W 003°01'0 0.0
2019-Oct-12 05:58N 53°27' W 003°01'0 0.0
2019-Oct-12 05:28N 53°27' W 003°01'0 0.9
2019-Oct-12 05:01N 53°27' W 003°01'0 0.2
2019-Oct-12 04:30N 53°27' W 003°01'510.0
2019-Oct-12 04:00N 53°31' W 003°07'612.5
2019-Oct-12 03:31N 53°31' W 003°17'917.2
2019-Oct-12 03:01N 53°31' W 003°31'918.4
2019-Oct-12 02:31N 53°31' W 003°47'918.1
2019-Oct-12 02:01N 53°32' W 004°02'917.5
2019-Oct-12 01:30N 53°34' W 004°17'6318.1
2019-Oct-11 22:03N 53°21' W 005°59'119.1
2019-Oct-11 22:01N 53°21' W 006°00'713.0
2019-Oct-11 21:30N 53°21' W 006°11'1 0.8
2019-Oct-11 20:15N 53°21' W 006°13'0 0.0
2019-Oct-11 19:57N 53°21' W 006°13'0 0.0
2019-Oct-11 19:30N 53°21' W 006°13'0 0.0
2019-Oct-11 18:45N 53°21' W 006°13'0 0.0
2019-Oct-11 18:30N 53°21' W 006°13'0 0.0
2019-Oct-11 17:59N 53°21' W 006°13'0 0.0
2019-Oct-11 17:02N 53°21' W 006°13'0 0.0
2019-Oct-11 16:59N 53°21' W 006°13'0 0.0
2019-Oct-11 16:30N 53°21' W 006°13'2 3.9
2019-Oct-11 16:00N 53°21' W 006°10'715.1
2019-Oct-11 15:30N 53°22' W 005°58'7818.5
2019-Oct-11 11:17N 53°33' W 003°48'519.3
2019-Oct-11 11:00N 53°33' W 003°39'1019.1
2019-Oct-11 10:30N 53°33' W 003°23'918.3
2019-Oct-11 10:00N 53°32' W 003°08'612.0
2019-Oct-11 09:30N 53°27' W 003°01'0 0.7
2019-Oct-11 09:00N 53°27' W 003°01'0 0.2
2019-Oct-11 08:29N 53°27' W 003°01'0 0.0
2019-Oct-11 07:59N 53°27' W 003°01'0 0.0
2019-Oct-11 07:28N 53°27' W 003°01'0 0.0
2019-Oct-11 06:58N 53°27' W 003°01'0 0.0
2019-Oct-11 06:28N 53°27' W 003°01'0 0.0
2019-Oct-11 05:58N 53°27' W 003°01'0 0.0
2019-Oct-11 05:28N 53°27' W 003°01'0 0.0
2019-Oct-11 05:00N 53°27' W 003°01'0 0.3
2019-Oct-11 04:30N 53°27' W 003°01'0 0.8
2019-Oct-11 04:00N 53°27' W 003°01'2 5.0
2019-Oct-11 03:30N 53°29' W 003°04'611.8
2019-Oct-11 03:01N 53°31' W 003°13'918.6
2019-Oct-11 02:31N 53°31' W 003°29'1020.2
2019-Oct-11 02:00N 53°31' W 003°46'1019.6
2019-Oct-11 01:31N 53°31' W 004°02'1018.8
2019-Oct-11 00:59N 53°35' W 004°18'6219.3
2019-Oct-10 21:47N 53°21' W 005°60'415.7
2019-Oct-10 21:30N 53°20' W 006°07'4 7.5
2019-Oct-10 21:00N 53°21' W 006°13'0 0.0
2019-Oct-10 20:27N 53°21' W 006°13'0 0.0
2019-Oct-10 19:47N 53°21' W 006°13'0 0.0
2019-Oct-10 19:05N 53°21' W 006°13'0 0.0
2019-Oct-10 18:59N 53°21' W 006°13'0 0.0
2019-Oct-10 18:20N 53°21' W 006°13'0 0.0
2019-Oct-10 17:41N 53°21' W 006°13'0 0.0
2019-Oct-10 17:28N 53°21' W 006°13'1 1.8
2019-Oct-10 17:00N 53°21' W 006°12'612.3
2019-Oct-10 16:30N 53°21' W 006°01'1017.5
2019-Oct-10 15:58N 53°24' W 005°46'7118.3
2019-Oct-10 12:04N 53°34' W 003°48'119.4
2019-Oct-10 12:00N 53°33' W 003°45'1019.2
2019-Oct-10 11:30N 53°33' W 003°29'918.9
2019-Oct-10 11:00N 53°31' W 003°14'612.6
2019-Oct-10 10:31N 53°29' W 003°04'2 4.7
2019-Oct-10 10:01N 53°27' W 003°01'0 0.9
2019-Oct-10 09:30N 53°27' W 003°01'0 0.0
2019-Oct-10 08:58N 53°27' W 003°01'0 0.0
2019-Oct-10 08:28N 53°27' W 003°01'0 0.0
2019-Oct-10 07:58N 53°27' W 003°01'0 0.0
2019-Oct-10 07:27N 53°27' W 003°01'0 0.0
2019-Oct-10 06:57N 53°27' W 003°01'0 0.0
2019-Oct-10 06:27N 53°27' W 003°01'0 0.0
2019-Oct-10 06:00N 53°27' W 003°01'0 0.0
2019-Oct-10 05:30N 53°27' W 003°01'0 0.0
2019-Oct-10 05:00N 53°27' W 003°01'0 0.9
2019-Oct-10 04:30N 53°27' W 003°01'0 0.9
2019-Oct-10 04:01N 53°27' W 003°02'714.4
2019-Oct-10 03:31N 53°32' W 003°11'917.8
2019-Oct-10 03:01N 53°31' W 003°26'918.6
2019-Oct-10 02:30N 53°31' W 003°42'918.3
2019-Oct-10 02:00N 53°33' W 003°57'917.9
2019-Oct-10 01:30N 53°34' W 004°12'6518.1
2019-Oct-09 21:54N 53°21' W 005°59'614.2
2019-Oct-09 21:30N 53°21' W 006°09'3 5.3
2019-Oct-09 21:00N 53°21' W 006°13'0 0.0
2019-Oct-09 20:22N 53°21' W 006°13'0 0.0
2019-Oct-09 19:43N 53°21' W 006°13'0 0.0
2019-Oct-09 19:28N 53°21' W 006°13'0 0.0
2019-Oct-09 18:58N 53°21' W 006°13'0 0.0
2019-Oct-09 18:09N 53°21' W 006°13'0 0.0
2019-Oct-09 18:00N 53°21' W 006°13'0 0.0
2019-Oct-09 17:27N 53°21' W 006°13'0 0.0
2019-Oct-09 16:45N 53°21' W 006°13'0 0.5
2019-Oct-09 16:30N 53°21' W 006°13'2 3.6
2019-Oct-09 16:00N 53°21' W 006°10'714.2
2019-Oct-09 15:30N 53°22' W 005°58'7818.3
2019-Oct-09 11:14N 53°34' W 003°49'418.9
2019-Oct-09 11:00N 53°33' W 003°41'918.8
2019-Oct-09 10:30N 53°33' W 003°26'918.1
2019-Oct-09 10:01N 53°32' W 003°11'715.0
2019-Oct-09 09:30N 53°27' W 003°01'0 0.5
2019-Oct-09 09:01N 53°27' W 003°01'0 0.7
2019-Oct-09 08:28N 53°27' W 003°01'0 0.0
2019-Oct-09 07:58N 53°27' W 003°01'0 0.0
2019-Oct-09 07:28N 53°27' W 003°01'0 0.0
2019-Oct-09 06:58N 53°27' W 003°01'0 0.0
2019-Oct-09 06:30N 53°27' W 003°01'0 0.0
2019-Oct-09 06:00N 53°27' W 003°01'0 0.0
2019-Oct-09 05:30N 53°27' W 003°01'0 0.0
2019-Oct-09 05:00N 53°27' W 003°01'0 0.0
2019-Oct-09 04:30N 53°27' W 003°01'0 0.9
2019-Oct-09 04:01N 53°27' W 003°01'0 0.7
2019-Oct-09 03:30N 53°27' W 003°02'714.0
2019-Oct-09 03:01N 53°32' W 003°11'816.8
2019-Oct-09 02:30N 53°31' W 003°25'816.9
2019-Oct-09 02:00N 53°31' W 003°39'917.4
2019-Oct-09 01:30N 53°32' W 003°53'918.1
2019-Oct-09 01:00N 53°34' W 004°09'  

Dump ship's entire track history